Time;durP1;ratioP1;P1;durP2;ratioP2;P2;SDS_P1;SDS_P2;PMS_P1;PMS_P2;Temp;Humidity;BMP_temperature;BMP_pressure;BME280_temperature;BME280_humidity;BME280_pressure;Samples;Min_cycle;Max_cycle;Signal;HPM_P1;HPM_P2
2022/09/07 00:01:48;;;;;;;18.88;15.13;;;19.10;1.00;;;;;;5029732;28;20107;-64
2022/09/07 00:04:13;;;;;;;17.80;14.60;;;19.20;1.00;;;;;;5029941;28;20124;-64
2022/09/07 00:06:39;;;;;;;18.88;14.02;;;20.00;1.00;;;;;;5029480;28;20034;-64
2022/09/07 00:09:05;;;;;;;17.45;14.10;;;18.90;1.00;;;;;;5029379;28;20421;-64
2022/09/07 00:11:30;;;;;;;18.50;14.63;;;18.10;1.00;;;;;;5031878;28;20034;-64
2022/09/07 00:13:56;;;;;;;19.88;14.63;;;18.10;1.00;;;;;;5016465;28;20048;-64
2022/09/07 00:16:28;;;;;;;18.60;14.32;;;19.10;1.00;;;;;;5014858;28;20510;-64
2022/09/07 00:18:56;;;;;;;18.65;14.63;;;19.10;1.00;;;;;;5031136;28;20095;-64
2022/09/07 00:21:22;;;;;;;18.90;15.35;;;18.50;1.00;;;;;;5015330;28;20065;-63
2022/09/07 00:23:49;;;;;;;19.27;15.18;;;18.70;1.00;;;;;;5033047;28;20451;-64
2022/09/07 00:26:21;;;;;;;21.20;16.42;;;18.40;1.00;;;;;;5033518;28;20121;-64
2022/09/07 00:28:48;;;;;;;19.15;16.10;;;19.10;1.00;;;;;;5033094;28;20037;-64
2022/09/07 00:31:17;;;;;;;17.95;14.63;;;18.20;1.00;;;;;;5014995;28;20042;-64
2022/09/07 00:33:43;;;;;;;19.55;14.95;;;18.30;1.00;;;;;;5033381;28;20037;-64
2022/09/07 00:36:09;;;;;;;21.98;15.65;;;18.40;1.00;;;;;;4999509;28;20127;-64
2022/09/07 00:38:35;;;;;;;16.10;11.48;;;18.40;1.00;;;;;;5029113;28;20049;-63
2022/09/07 00:41:00;;;;;;;13.40;10.32;;;18.00;1.00;;;;;;5033609;28;20033;-64
2022/09/07 00:43:29;;;;;;;14.77;9.10;;;18.40;1.00;;;;;;5033141;28;20148;-64
2022/09/07 00:45:55;;;;;;;12.45;9.30;;;;;;;;;;5029877;28;20116;-63
2022/09/07 00:48:24;;;;;;;15.25;9.15;;;18.60;1.00;;;;;;5032534;28;20082;-63
2022/09/07 00:50:59;;;;;;;15.30;9.80;;;17.80;1.00;;;;;;5033584;28;20037;-64
2022/09/07 00:53:28;;;;;;;18.73;10.27;;;18.30;1.00;;;;;;5032976;28;20037;-64
2022/09/07 00:55:55;;;;;;;17.58;10.20;;;17.80;1.00;;;;;;5025194;28;20040;-64
2022/09/07 00:58:22;;;;;;;16.55;9.15;;;18.20;1.00;;;;;;5031860;28;20029;-64
2022/09/07 01:00:49;;;;;;;14.52;6.05;;;18.10;1.00;;;;;;5032921;28;20053;-63
2022/09/07 01:03:21;;;;;;;11.38;5.40;;;18.30;1.00;;;;;;5032070;28;20033;-64
2022/09/07 01:05:51;;;;;;;8.15;3.47;;;17.90;1.00;;;;;;5033117;28;20041;-64
2022/09/07 01:08:17;;;;;;;14.25;3.22;;;18.20;1.00;;;;;;5031870;28;20037;-64
2022/09/07 01:10:43;;;;;;;8.45;2.65;;;18.00;1.00;;;;;;5032634;28;20037;-64
2022/09/07 01:13:08;;;;;;;10.10;2.63;;;18.10;1.00;;;;;;5032574;28;20087;-64
2022/09/07 01:16:00;;;;;;;8.68;2.92;;;17.70;1.00;;;;;;5032589;28;20049;-64
2022/09/07 01:18:38;;;;;;;9.70;2.20;;;;;;;;;;5018520;28;20525;-64
2022/09/07 01:21:28;;;;;;;12.82;2.60;;;17.30;1.00;;;;;;5024940;28;20092;-64
2022/09/07 01:24:01;;;;;;;12.00;2.33;;;17.80;1.00;;;;;;5030628;28;20042;-64
2022/09/07 01:26:52;;;;;;;9.10;2.75;;;17.70;1.00;;;;;;5032420;28;20375;-64
2022/09/07 01:29:30;;;;;;;10.40;3.58;;;17.40;1.00;;;;;;5027142;28;20436;-64
2022/09/07 01:32:22;;;;;;;11.77;3.08;;;16.60;1.00;;;;;;5027007;28;20030;-65
2022/09/07 01:34:52;;;;;;;11.68;2.90;;;17.60;1.00;;;;;;5031313;28;20103;-65
2022/09/07 01:37:35;;;;;;;9.55;2.83;;;17.50;1.00;;;;;;5032058;28;20088;-66
2022/09/07 01:40:39;;;;;;;10.13;2.70;;;16.60;1.00;;;;;;5030970;28;20471;-66
2022/09/07 01:43:21;;;;;;;12.63;3.10;;;16.50;1.00;;;;;;5025986;28;20091;-67
2022/09/07 01:45:47;;;;;;;9.48;3.47;;;17.00;1.00;;;;;;5015623;28;20041;-66
2022/09/07 01:48:16;;;;;;;10.23;2.72;;;17.10;1.00;;;;;;5031489;28;20034;-66
2022/09/07 01:50:48;;;;;;;9.60;3.40;;;17.00;1.00;;;;;;5032320;28;20033;-66
2022/09/07 01:53:23;;;;;;;10.25;2.88;;;16.20;1.00;;;;;;5032172;28;20049;-66
2022/09/07 01:55:57;;;;;;;11.18;2.95;;;16.40;1.00;;;;;;5027473;28;20083;-67
2022/09/07 01:58:39;;;;;;;11.00;3.53;;;17.40;1.00;;;;;;5029702;28;20407;-67
2022/09/07 02:01:10;;;;;;;8.43;3.35;;;16.30;1.00;;;;;;5031753;28;20049;-67
2022/09/07 02:03:50;;;;;;;9.85;3.42;;;16.90;1.00;;;;;;5023393;28;20141;-67
2022/09/07 02:06:35;;;;;;;17.02;4.40;;;16.70;1.00;;;;;;5013966;28;20045;-67
2022/09/07 02:09:12;;;;;;;9.43;3.42;;;16.90;1.00;;;;;;5023857;28;20069;-68
2022/09/07 02:11:42;;;;;;;9.38;3.75;;;16.80;1.00;;;;;;5031643;28;20406;-68
2022/09/07 02:14:23;;;;;;;8.60;3.78;;;16.40;1.00;;;;;;5031125;28;20394;-68
2022/09/07 02:16:56;;;;;;;9.60;3.95;;;16.80;1.00;;;;;;5024418;28;20041;-68
2022/09/07 02:19:25;;;;;;;9.50;3.95;;;16.60;1.00;;;;;;5028321;28;20034;-67
2022/09/07 02:22:00;;;;;;;8.25;3.53;;;17.60;1.00;;;;;;5031122;28;20463;-67
2022/09/07 02:24:36;;;;;;;9.57;3.92;;;16.80;1.00;;;;;;5031351;28;20092;-67
2022/09/07 02:27:06;;;;;;;7.82;2.72;;;16.60;1.00;;;;;;5020854;28;20049;-67
2022/09/07 02:29:32;;;;;;;9.65;3.92;;;16.90;1.00;;;;;;5031649;28;20044;-66
2022/09/07 02:31:57;;;;;;;6.40;2.60;;;16.20;1.00;;;;;;5030903;28;20486;-66
2022/09/07 02:34:23;;;;;;;6.50;3.08;;;17.10;1.00;;;;;;5031050;28;20410;-66
2022/09/07 02:36:51;;;;;;;8.40;3.05;;;17.40;1.00;;;;;;5030589;28;20120;-66
2022/09/07 02:39:17;;;;;;;10.13;3.45;;;17.10;1.00;;;;;;5013895;28;20041;-66
2022/09/07 02:41:43;;;;;;;8.18;3.25;;;16.90;1.00;;;;;;5031138;28;20384;-67
2022/09/07 02:44:22;;;;;;;9.50;3.03;;;15.80;1.00;;;;;;5030798;28;20046;-67
2022/09/07 02:47:13;;;;;;;8.10;3.22;;;17.50;1.00;;;;;;5030341;28;20061;-67
2022/09/07 02:49:48;;;;;;;6.82;2.70;;;16.80;1.00;;;;;;5028819;28;20194;-67
2022/09/07 02:52:34;;;;;;;7.32;3.92;;;17.10;1.00;;;;;;5030741;28;20416;-66
2022/09/07 02:55:37;;;;;;;7.15;3.17;;;16.60;1.00;;;;;;5031198;28;20124;-66
2022/09/07 02:58:32;;;;;;;8.18;2.97;;;17.00;1.00;;;;;;4989057;28;20073;-66
2022/09/07 03:01:23;;;;;;;8.30;3.75;;;17.10;1.00;;;;;;5017929;28;20108;-66
2022/09/07 03:04:23;;;;;;;8.32;3.10;;;17.50;1.00;;;;;;5030528;28;20038;-66
2022/09/07 03:07:08;;;;;;;8.05;2.95;;;17.70;1.00;;;;;;4988439;28;20117;-65
2022/09/07 03:09:40;;;;;;;6.50;2.83;;;17.00;1.00;;;;;;5012761;28;20060;-65
2022/09/07 03:12:06;;;;;;;5.78;2.60;;;17.80;1.00;;;;;;5030180;28;20441;-65
2022/09/07 03:14:33;;;;;;;9.15;3.42;;;17.00;1.00;;;;;;5052143;22;20049;-88
2022/09/07 03:17:00;;;;;;;7.70;3.15;;;17.40;1.00;;;;;;5004930;28;20057;-90
2022/09/07 03:19:26;;;;;;;9.98;3.63;;;17.40;1.00;;;;;;4995735;28;20057;-89
2022/09/07 03:21:52;;;;;;;7.85;3.15;;;17.30;1.00;;;;;;5009437;28;20033;-88
2022/09/07 03:24:21;;;;;;;7.63;3.17;;;;;;;;;;5032245;28;20033;-89
2022/09/07 03:26:49;;;;;;;7.07;3.00;;;17.10;1.00;;;;;;4991356;28;20045;-90
2022/09/07 03:29:15;;;;;;;7.53;3.00;;;16.70;1.00;;;;;;5022847;28;20447;-89
2022/09/07 03:31:40;;;;;;;8.02;2.75;;;16.60;1.00;;;;;;5004346;28;20501;-89
2022/09/07 03:34:06;;;;;;;9.43;3.47;;;17.40;1.00;;;;;;4988889;28;20037;-89
2022/09/07 03:36:32;;;;;;;9.13;3.20;;;17.30;1.00;;;;;;5005048;28;20072;-88
2022/09/07 03:38:58;;;;;;;8.15;3.53;;;17.40;1.00;;;;;;5004632;28;20556;-90
2022/09/07 03:41:27;;;;;;;7.72;2.80;;;;;;;;;;5023283;28;20037;-90
2022/09/07 03:43:53;;;;;;;8.55;3.20;;;17.20;1.00;;;;;;5023574;28;20073;-89
2022/09/07 03:46:19;;;;;;;8.90;3.50;;;18.40;1.00;;;;;;5022506;28;20156;-90
2022/09/07 03:48:47;;;;;;;6.57;3.75;;;17.40;1.00;;;;;;4987571;28;20077;-89
2022/09/07 03:51:16;;;;;;;8.73;3.53;;;17.10;1.00;;;;;;5001081;28;20134;-89
2022/09/07 03:53:45;;;;;;;10.27;4.20;;;16.40;1.00;;;;;;4988397;28;20061;-89
2022/09/07 03:56:20;;;;;;;8.30;3.70;;;17.30;1.00;;;;;;5004252;28;20107;-89
2022/09/07 03:58:48;;;;;;;7.60;3.38;;;17.00;1.00;;;;;;5003722;28;20051;-90
2022/09/07 04:01:19;;;;;;;9.50;4.20;;;17.30;1.00;;;;;;4988197;28;20412;-89
2022/09/07 04:03:46;;;;;;;7.85;3.78;;;16.30;1.00;;;;;;5003834;28;20071;-89
2022/09/07 04:06:13;;;;;;;9.48;4.57;;;16.70;1.00;;;;;;4987905;28;20033;-89
2022/09/07 04:08:40;;;;;;;10.00;4.18;;;18.10;1.00;;;;;;5003486;28;20239;-89
2022/09/07 04:11:07;;;;;;;8.00;4.68;;;17.00;1.00;;;;;;4987812;28;20056;-88
2022/09/07 04:13:36;;;;;;;6.95;3.67;;;17.00;1.00;;;;;;5022021;28;20160;-89
2022/09/07 04:16:13;;;;;;;12.32;4.20;;;;;;;;;;4987590;28;20520;-89
2022/09/07 04:18:40;;;;;;;8.88;4.05;;;17.00;1.00;;;;;;4987131;28;20191;-88
2022/09/07 04:21:06;;;;;;;7.28;4.00;;;16.30;1.00;;;;;;4987285;28;20061;-90
2022/09/07 04:23:32;;;;;;;8.43;4.25;;;16.60;1.00;;;;;;5000445;28;20967;-89
2022/09/07 04:25:58;;;;;;;9.45;4.07;;;17.30;1.00;;;;;;5003746;28;20108;-89
2022/09/07 04:28:24;;;;;;;9.63;4.20;;;16.30;1.00;;;;;;4997983;28;20424;-89
2022/09/07 04:30:50;;;;;;;11.32;4.60;;;16.90;1.00;;;;;;4978375;28;20088;-89
2022/09/07 04:33:15;;;;;;;8.98;4.60;;;17.20;1.00;;;;;;4986797;28;20826;-89
2022/09/07 04:35:42;;;;;;;8.82;4.57;;;16.40;1.00;;;;;;4986995;28;20098;-88
2022/09/07 04:38:13;;;;;;;9.35;3.83;;;17.00;1.00;;;;;;4986502;28;20142;-89
2022/09/07 04:40:38;;;;;;;11.75;4.32;;;16.90;1.00;;;;;;5003230;28;20052;-88
2022/09/07 04:43:06;;;;;;;9.57;3.65;;;17.00;1.00;;;;;;4987050;28;20045;-89
2022/09/07 04:45:31;;;;;;;14.60;4.90;;;16.20;1.00;;;;;;5002013;28;20049;-87
2022/09/07 04:47:57;;;;;;;10.23;3.80;;;17.20;1.00;;;;;;4981746;28;20477;-88
2022/09/07 04:50:23;;;;;;;9.70;3.92;;;16.80;1.00;;;;;;5016163;28;20041;-89
2022/09/07 04:52:49;;;;;;;9.98;4.13;;;16.20;1.00;;;;;;5000088;28;20080;-87
2022/09/07 04:55:15;;;;;;;7.63;3.38;;;17.40;1.00;;;;;;4999145;28;20445;-88
2022/09/07 04:57:41;;;;;;;9.43;3.97;;;17.40;1.00;;;;;;5003544;28;20077;-88
2022/09/07 05:00:10;;;;;;;10.40;4.15;;;16.90;1.00;;;;;;5000319;28;20374;-86
2022/09/07 05:02:36;;;;;;;8.88;3.63;;;18.80;1.00;;;;;;4981861;28;20049;-87
2022/09/07 05:05:03;;;;;;;12.27;3.50;;;16.90;1.00;;;;;;4983332;28;20779;-87
2022/09/07 05:07:29;;;;;;;8.48;4.30;;;16.30;1.00;;;;;;4981774;28;20258;-85
2022/09/07 05:09:56;;;;;;;10.88;4.20;;;17.20;1.00;;;;;;4999290;28;20037;-85
2022/09/07 05:12:22;;;;;;;12.50;5.05;;;16.90;1.00;;;;;;4987952;28;20033;-88
2022/09/07 05:14:49;;;;;;;12.40;4.75;;;17.30;1.00;;;;;;5000115;28;20143;-89
2022/09/07 05:17:31;;;;;;;14.32;4.32;;;16.90;1.00;;;;;;5008003;28;20072;-88
2022/09/07 05:20:02;;;;;;;9.80;4.53;;;17.10;1.00;;;;;;5021099;28;20077;-89
2022/09/07 05:22:42;;;;;;;;;;;;;;;;;;;;;
2022/09/07 05:25:13;;;;;;;13.23;4.45;;;16.90;1.00;;;;;;5003749;28;20104;-87
2022/09/07 05:27:44;;;;;;;13.02;4.30;;;16.80;1.00;;;;;;5005153;28;20089;-87
2022/09/07 05:30:10;;;;;;;11.40;5.40;;;16.60;1.00;;;;;;4983992;28;20749;-88
2022/09/07 05:32:36;;;;;;;16.40;5.35;;;17.00;1.00;;;;;;5014150;28;20042;-87
2022/09/07 05:35:02;;;;;;;14.15;5.28;;;16.50;1.00;;;;;;5019724;28;20053;-87
2022/09/07 05:37:28;;;;;;;18.33;5.70;;;17.10;1.00;;;;;;4996148;28;20050;-86
2022/09/07 05:39:57;;;;;;;10.80;4.88;;;16.60;1.00;;;;;;5006852;28;20041;-86
2022/09/07 05:42:22;;;;;;;15.13;5.47;;;17.40;1.00;;;;;;5021716;28;20045;-86
2022/09/07 05:44:48;;;;;;;10.70;5.35;;;17.40;1.00;;;;;;5021101;28;20056;-87
2022/09/07 05:47:14;;;;;;;14.32;5.50;;;16.70;1.00;;;;;;4997053;28;20041;-86
2022/09/07 05:49:39;;;;;;;11.30;5.03;;;16.90;1.00;;;;;;5004148;28;20037;-86
2022/09/07 05:52:06;;;;;;;11.05;5.28;;;17.30;1.00;;;;;;5020990;28;20393;-86
2022/09/07 05:54:31;;;;;;;10.95;5.68;;;17.20;1.00;;;;;;5021034;28;20132;-85
2022/09/07 05:56:57;;;;;;;11.02;5.00;;;17.10;1.00;;;;;;4981633;28;20224;-86
2022/09/07 05:59:23;;;;;;;13.02;5.05;;;17.40;1.00;;;;;;5001569;28;20041;-86
2022/09/07 06:01:48;;;;;;;12.23;4.90;;;17.50;1.00;;;;;;5002585;28;20297;-84
2022/09/07 06:04:14;;;;;;;14.05;5.65;;;17.10;1.00;;;;;;5020627;28;20839;-86
2022/09/07 06:06:39;;;;;;;14.07;5.30;;;17.20;1.00;;;;;;5000322;28;20037;-85
2022/09/07 06:09:06;;;;;;;11.55;6.00;;;17.70;1.00;;;;;;5020623;28;20119;-85
2022/09/07 06:11:32;;;;;;;13.60;6.35;;;17.30;1.00;;;;;;5020376;28;20148;-85
2022/09/07 06:13:57;;;;;;;13.27;5.97;;;16.70;1.00;;;;;;5004345;28;20041;-86
2022/09/07 06:16:23;;;;;;;16.25;6.80;;;16.50;1.00;;;;;;4994762;28;20105;-86
2022/09/07 06:18:49;;;;;;;9.35;6.45;;;17.50;1.00;;;;;;5029803;28;20759;-86
2022/09/07 06:21:17;;;;;;;11.52;6.63;;;17.60;1.00;;;;;;5000553;28;20037;-86
2022/09/07 06:23:44;;;;;;;11.18;6.95;;;17.40;1.00;;;;;;5021770;28;20512;-87
2022/09/07 06:26:14;;;;;;;15.20;6.68;;;17.80;1.00;;;;;;5005033;28;20093;-86
2022/09/07 06:28:48;;;;;;;9.98;6.57;;;17.30;1.00;;;;;;5013229;28;20041;-87
2022/09/07 06:31:22;;;;;;;11.18;7.22;;;18.60;1.00;;;;;;4988678;28;20415;-86
2022/09/07 06:33:48;;;;;;;8.88;6.57;;;16.80;1.00;;;;;;5004536;28;20129;-87
2022/09/07 06:36:19;;;;;;;10.32;6.78;;;18.80;1.00;;;;;;5003094;28;20099;-87
2022/09/07 06:38:48;;;;;;;10.27;6.75;;;17.50;1.00;;;;;;5004984;28;20125;-86
2022/09/07 06:41:22;;;;;;;9.45;6.55;;;17.60;1.00;;;;;;5023613;28;20037;-87
2022/09/07 06:43:48;;;;;;;10.55;6.80;;;17.30;1.00;;;;;;5006230;28;20391;-86
2022/09/07 06:46:15;;;;;;;9.38;6.32;;;17.00;1.00;;;;;;5005912;28;20579;-85
2022/09/07 06:48:43;;;;;;;10.20;7.13;;;17.60;1.00;;;;;;4995269;28;20045;-85
2022/09/07 06:51:18;;;;;;;11.27;7.38;;;17.80;1.00;;;;;;4975801;28;20042;-84
2022/09/07 06:53:55;;;;;;;9.82;6.90;;;17.40;1.00;;;;;;4983732;28;20057;-85
2022/09/07 06:56:35;;;;;;;11.13;7.70;;;18.10;1.00;;;;;;4992997;28;20135;-85
2022/09/07 06:59:07;;;;;;;9.88;7.65;;;18.10;1.00;;;;;;5007800;28;20041;-85
2022/09/07 07:01:56;;;;;;;12.60;8.68;;;20.10;1.00;;;;;;5016352;28;20053;-83
2022/09/07 07:04:31;;;;;;;13.95;9.80;;;17.90;1.00;;;;;;4986561;28;20054;-84
2022/09/07 07:07:12;;;;;;;11.40;9.80;;;17.80;1.00;;;;;;4995669;28;20107;-84
2022/09/07 07:10:00;;;;;;;11.45;9.43;;;18.70;1.00;;;;;;4998066;28;20038;-85
2022/09/07 07:12:55;;;;;;;13.32;10.07;;;18.70;1.00;;;;;;5002996;28;20115;-85
2022/09/07 07:15:32;;;;;;;11.68;9.60;;;;;;;;;;5013458;28;20060;-85
2022/09/07 07:18:07;;;;;;;11.48;10.02;;;;;;;;;;5003572;28;20395;-85
2022/09/07 07:21:18;;;;;;;12.95;10.73;;;18.20;1.00;;;;;;5004866;28;20251;-84
2022/09/07 07:26:47;;;;;;;13.13;10.43;;;18.00;1.00;;;;;;5037119;22;20053;-56
2022/09/07 07:29:13;;;;;;;12.65;10.70;;;17.80;1.00;;;;;;5030261;28;20045;-57
2022/09/07 07:31:38;;;;;;;13.05;10.93;;;18.60;1.00;;;;;;5030269;28;20107;-56
2022/09/07 07:34:04;;;;;;;15.85;12.13;;;17.50;1.00;;;;;;5026458;28;20043;-53
2022/09/07 07:36:29;;;;;;;14.50;11.75;;;18.70;1.00;;;;;;5030062;28;20447;-53
2022/09/07 07:38:56;;;;;;;13.48;11.35;;;18.70;1.00;;;;;;5012115;28;20502;-56
2022/09/07 07:41:25;;;;;;;16.15;12.27;;;18.60;1.00;;;;;;5027986;28;20025;-57
2022/09/07 07:43:55;;;;;;;13.15;11.57;;;18.80;1.00;;;;;;5029148;28;20458;-55
2022/09/07 07:46:22;;;;;;;12.95;11.35;;;17.90;1.00;;;;;;5012686;28;20291;-55
2022/09/07 07:48:48;;;;;;;15.02;11.70;;;17.90;1.00;;;;;;5029885;28;20038;-55
2022/09/07 07:51:14;;;;;;;14.10;12.10;;;18.70;1.00;;;;;;5012510;28;20098;-55
2022/09/07 07:53:40;;;;;;;13.75;10.63;;;19.40;1.00;;;;;;5030272;28;20037;-56
2022/09/07 07:56:08;;;;;;;15.35;11.13;;;18.00;1.00;;;;;;5030017;28;20033;-55
2022/09/07 07:58:35;;;;;;;14.18;11.60;;;19.00;1.00;;;;;;5029298;28;20403;-57
2022/09/07 08:01:20;;;;;;;16.73;11.50;;;18.60;1.00;;;;;;5030414;28;20272;-56
2022/09/07 08:03:46;;;;;;;12.38;10.48;;;19.60;1.00;;;;;;5015515;28;20034;-56
2022/09/07 08:06:14;;;;;;;13.13;10.55;;;18.80;1.00;;;;;;5023851;28;20065;-56
2022/09/07 08:08:40;;;;;;;12.55;10.27;;;19.10;1.00;;;;;;5013348;28;20048;-55
2022/09/07 08:11:08;;;;;;;13.77;11.00;;;19.10;1.00;;;;;;5009786;28;20030;-55
2022/09/07 08:13:36;;;;;;;15.50;12.63;;;20.00;1.00;;;;;;5017592;28;20042;-57
2022/09/07 08:16:02;;;;;;;21.85;13.38;;;19.50;1.00;;;;;;5005588;28;20510;-55
2022/09/07 08:18:27;;;;;;;17.95;14.48;;;19.60;1.00;;;;;;5027739;28;20034;-55
2022/09/07 08:20:57;;;;;;;16.05;13.25;;;19.50;1.00;;;;;;5029407;28;20037;-55
2022/09/07 08:23:23;;;;;;;15.90;13.23;;;18.70;1.00;;;;;;5029941;28;20037;-55
2022/09/07 08:25:49;;;;;;;15.38;13.77;;;19.40;1.00;;;;;;5025547;28;20412;-55
2022/09/07 08:28:15;;;;;;;15.15;13.43;;;19.20;1.00;;;;;;5023858;28;20128;-53
2022/09/07 08:30:41;;;;;;;16.45;13.20;;;18.70;1.00;;;;;;5005051;28;20120;-55
2022/09/07 08:33:07;;;;;;;15.75;12.23;;;19.30;1.00;;;;;;5021840;28;20492;-56
2022/09/07 08:35:32;;;;;;;14.45;12.32;;;19.50;1.00;;;;;;5025394;28;20068;-56
2022/09/07 08:37:58;;;;;;;14.60;13.00;;;19.40;1.00;;;;;;5007377;28;20116;-56
2022/09/07 08:40:25;;;;;;;14.93;13.00;;;18.80;1.00;;;;;;5029902;28;20086;-56
2022/09/07 08:43:11;;;;;;;15.15;13.48;;;19.40;1.00;;;;;;5007019;28;20064;-57
2022/09/07 08:45:43;;;;;;;18.17;13.13;;;19.10;1.00;;;;;;5030069;28;20120;-57
2022/09/07 08:48:13;;;;;;;15.15;13.55;;;19.20;1.00;;;;;;5031409;28;20092;-58
2022/09/07 08:50:55;;;;;;;14.68;12.57;;;19.90;1.00;;;;;;5032942;28;20499;-55
2022/09/07 08:53:23;;;;;;;13.55;12.10;;;19.50;1.00;;;;;;5023842;28;20034;-57
2022/09/07 08:56:03;;;;;;;17.00;13.50;;;19.60;1.00;;;;;;5015773;28;20044;-56
2022/09/07 08:58:43;;;;;;;15.50;12.43;;;19.50;1.00;;;;;;5028810;28;20037;-55
2022/09/07 09:01:12;;;;;;;14.32;12.82;;;19.60;1.00;;;;;;5023221;28;20097;-56
2022/09/07 09:03:39;;;;;;;13.68;11.27;;;20.00;1.00;;;;;;5029688;28;20492;-54
2022/09/07 09:06:39;;;;;;;14.35;11.00;;;19.40;1.00;;;;;;5030031;28;20038;-56
2022/09/07 09:09:19;;;;;;;12.18;10.20;;;19.60;1.00;;;;;;5028302;28;20068;-55
2022/09/07 09:11:53;;;;;;;10.60;8.93;;;19.40;1.00;;;;;;5020201;28;20075;-55
2022/09/07 09:17:14;;;;;;;9.85;7.60;;;;;;;;;;5114454;22;20048;-66
2022/09/07 09:20:07;;;;;;;9.90;7.35;;;;;;;;;;5049106;28;20486;-66
2022/09/07 09:22:34;;;;;;;11.13;7.75;;;20.20;1.00;;;;;;5047631;28;20231;-66
2022/09/07 09:25:04;;;;;;;8.30;6.75;;;;;;;;;;5047419;28;20116;-66
2022/09/07 09:27:30;;;;;;;9.30;6.32;;;20.20;1.00;;;;;;5031863;28;20055;-66
2022/09/07 09:29:55;;;;;;;9.48;5.35;;;20.20;1.00;;;;;;5048998;28;20029;-66
2022/09/07 09:32:40;;;;;;;8.30;4.97;;;;;;;;;;5051868;28;20159;-65
2022/09/07 09:35:14;;;;;;;6.50;4.10;;;;;;;;;;5049914;28;20465;-66
2022/09/07 09:37:41;;;;;;;6.72;3.42;;;20.50;1.00;;;;;;5047762;28;20068;-66
2022/09/07 09:40:22;;;;;;;5.95;3.50;;;20.00;1.00;;;;;;5043360;28;20379;-66
2022/09/07 09:43:20;;;;;;;6.47;3.80;;;20.10;1.00;;;;;;5046143;28;20069;-65
2022/09/07 09:45:51;;;;;;;6.38;3.88;;;;;;;;;;5030668;28;20194;-65
2022/09/07 09:48:38;;;;;;;6.50;3.75;;;;;;;;;;5047100;28;20131;-65
2022/09/07 09:51:06;;;;;;;7.72;4.25;;;20.30;1.00;;;;;;5047144;28;20041;-65
2022/09/07 09:53:52;;;;;;;8.60;3.80;;;;;;;;;;5042094;28;20186;-65
2022/09/07 09:56:18;;;;;;;6.22;3.40;;;20.40;1.00;;;;;;5039964;28;20045;-66
2022/09/07 09:58:46;;;;;;;7.40;4.43;;;20.40;1.00;;;;;;5043533;28;20044;-67
2022/09/07 10:01:25;;;;;;;8.00;4.18;;;;;;;;;;5049965;28;20116;-66
2022/09/07 10:03:51;;;;;;;8.18;4.00;;;;;;;;;;5051145;28;20414;-66
2022/09/07 10:06:18;;;;;;;6.90;3.63;;;20.40;1.00;;;;;;5051263;28;20548;-66
2022/09/07 10:08:57;;;;;;;6.70;3.60;;;20.40;1.00;;;;;;5051225;28;20130;-66
2022/09/07 10:11:42;;;;;;;8.15;4.30;;;20.50;1.00;;;;;;5043199;28;20449;-66
2022/09/07 10:14:17;;;;;;;6.88;3.35;;;;;;;;;;5046292;28;20036;-66
2022/09/07 10:16:43;;;;;;;7.75;3.83;;;;;;;;;;5023922;28;20486;-66
2022/09/07 10:19:34;;;;;;;5.18;2.78;;;20.50;1.00;;;;;;5047646;28;20041;-66
2022/09/07 10:22:03;;;;;;;6.78;3.35;;;20.80;1.00;;;;;;5045323;28;20042;-66
2022/09/07 10:24:38;;;;;;;5.38;2.90;;;20.90;99.90;;;;;;5046073;28;20037;-66
2022/09/07 10:27:27;;;;;;;5.88;3.28;;;20.90;99.90;;;;;;5045327;28;20444;-66
2022/09/07 10:29:54;;;;;;;5.45;3.20;;;;;;;;;;5049525;28;20056;-66
2022/09/07 10:32:40;;;;;;;7.15;4.00;;;21.00;99.90;;;;;;5047500;28;20029;-66
2022/09/07 10:35:24;;;;;;;5.70;2.50;;;20.60;99.90;;;;;;5046891;28;20577;-64
2022/09/07 10:38:19;;;;;;;4.80;2.30;;;20.70;99.90;;;;;;5047483;28;20560;-64
2022/09/07 10:41:08;;;;;;;5.95;2.47;;;21.00;99.90;;;;;;5025459;28;20548;-64
2022/09/07 10:43:49;;;;;;;5.10;2.35;;;22.20;99.90;;;;;;5040351;28;20060;-64
2022/09/07 10:46:37;;;;;;;8.02;2.63;;;;;;;;;;5039444;28;20037;-64
2022/09/07 10:49:24;;;;;;;4.22;1.75;;;22.00;99.90;;;;;;5040779;28;20032;-64
2022/09/07 10:52:03;;;;;;;5.20;2.28;;;22.10;99.90;;;;;;5037893;28;20033;-64
2022/09/07 10:54:43;;;;;;;5.18;2.05;;;21.60;99.90;;;;;;5039062;28;20029;-64
2022/09/07 10:57:26;;;;;;;7.25;1.70;;;22.70;99.90;;;;;;5035794;28;20049;-64
2022/09/07 11:00:14;;;;;;;5.55;2.13;;;22.60;99.90;;;;;;5028130;28;20049;-64
2022/09/07 11:03:04;;;;;;;4.57;2.33;;;22.50;99.90;;;;;;5040824;28;20041;-64
2022/09/07 11:05:51;;;;;;;4.60;1.90;;;22.40;99.90;;;;;;5016680;28;20037;-63
2022/09/07 11:08:27;;;;;;;4.97;1.98;;;;;;;;;;5036950;28;20045;-63
2022/09/07 11:11:17;;;;;;;4.80;2.30;;;22.50;99.90;;;;;;5040143;28;20048;-64
2022/09/07 11:13:45;;;;;;;4.47;1.73;;;22.10;99.90;;;;;;5039944;28;20457;-64
2022/09/07 11:16:17;;;;;;;5.25;2.42;;;22.70;99.90;;;;;;5038857;28;20341;-64
2022/09/07 11:18:53;;;;;;;4.30;1.80;;;;;;;;;;5040437;28;20386;-64
2022/09/07 11:21:45;;;;;;;5.30;1.65;;;22.70;99.90;;;;;;5016578;28;20512;-64
2022/09/07 11:24:25;;;;;;;3.78;1.27;;;23.50;99.90;;;;;;5043439;28;20045;-64
2022/09/07 11:26:55;;;;;;;4.25;1.58;;;;;;;;;;5038666;28;20107;-62
2022/09/07 11:29:43;;;;;;;3.97;1.60;;;23.60;99.90;;;;;;5021624;28;20037;-63
2022/09/07 11:32:21;;;;;;;6.97;1.80;;;23.40;99.90;;;;;;5036760;28;20033;-63
2022/09/07 11:34:49;;;;;;;6.82;1.80;;;23.50;99.90;;;;;;5042646;28;20037;-62
2022/09/07 11:37:19;;;;;;;4.32;2.13;;;;;;;;;;5027429;28;20048;-62
2022/09/07 11:39:59;;;;;;;5.55;1.70;;;22.80;99.90;;;;;;5029042;28;20063;-62
2022/09/07 11:42:46;;;;;;;4.85;1.80;;;23.60;99.90;;;;;;5046913;28;20116;-62
2022/09/07 11:45:23;;;;;;;4.45;1.80;;;;;;;;;;5040145;28;20052;-62
2022/09/07 11:47:56;;;;;;;3.88;1.40;;;23.50;99.90;;;;;;5028917;28;20068;-62
2022/09/07 11:50:23;;;;;;;4.50;1.73;;;23.70;99.90;;;;;;5040259;28;20117;-62
2022/09/07 11:52:52;;;;;;;4.90;1.63;;;23.90;99.90;;;;;;5042650;28;20056;-63
2022/09/07 11:55:27;;;;;;;4.93;1.60;;;23.60;99.90;;;;;;5043000;28;20041;-62
2022/09/07 11:58:01;;;;;;;4.32;1.65;;;23.50;99.90;;;;;;5042577;28;20040;-62
2022/09/07 12:00:49;;;;;;;4.97;1.70;;;24.20;99.90;;;;;;5047806;28;20037;-62
2022/09/07 12:03:34;;;;;;;4.07;1.60;;;24.30;99.90;;;;;;5040907;28;20072;-63
2022/09/07 12:06:15;;;;;;;5.97;1.67;;;24.90;99.90;;;;;;5049963;28;20041;-62
2022/09/07 12:08:59;;;;;;;5.30;1.75;;;24.80;99.90;;;;;;5050277;28;20099;-62
2022/09/07 12:11:56;;;;;;;;;;;26.50;99.90;;;;;;5052456;28;20041;-63
2022/09/07 12:14:31;;;;;;;4.57;1.65;;;26.00;99.90;;;;;;5046603;28;19923;-63
2022/09/07 12:17:22;;;;;;;5.35;1.80;;;28.70;99.90;;;;;;5044398;28;20037;-63
2022/09/07 12:20:09;;;;;;;4.70;1.90;;;29.50;99.90;;;;;;5040769;28;20064;-63
2022/09/07 12:22:36;;;;;;;4.38;1.73;;;29.70;99.90;;;;;;5044526;28;20150;-63
2022/09/07 12:25:09;;;;;;;4.30;2.00;;;29.20;99.90;;;;;;5033743;28;20041;-63
2022/09/07 12:27:37;;;;;;;5.00;1.98;;;27.70;99.90;;;;;;5037419;28;20038;-63
2022/09/07 12:30:03;;;;;;;4.30;2.00;;;28.50;99.90;;;;;;5030419;28;20044;-63
2022/09/07 12:32:47;;;;;;;4.97;1.88;;;29.70;99.90;;;;;;5051703;28;20494;-63
2022/09/07 12:35:30;;;;;;;5.22;2.13;;;28.30;99.90;;;;;;5044703;28;20048;-63
2022/09/07 12:37:56;;;;;;;5.20;2.20;;;27.90;99.90;;;;;;5045270;28;20037;-63
2022/09/07 12:40:28;;;;;;;5.65;2.15;;;27.20;99.90;;;;;;5049987;28;20267;-63
2022/09/07 12:43:12;;;;;;;5.38;2.45;;;27.30;99.90;;;;;;5049899;28;20033;-63
2022/09/07 12:45:37;;;;;;;4.15;1.60;;;29.90;99.90;;;;;;5050273;28;20049;-63
2022/09/07 12:48:34;;;;;;;5.88;1.92;;;31.30;99.90;;;;;;5048946;28;20178;-63
2022/09/07 12:51:18;;;;;;;4.88;2.30;;;29.90;99.90;;;;;;5050506;28;20494;-63
2022/09/07 12:54:18;;;;;;;6.85;2.00;;;30.70;99.90;;;;;;5051050;28;20402;-64
2022/09/07 12:57:02;;;;;;;4.70;1.83;;;31.80;99.90;;;;;;5047699;28;20033;-66
2022/09/07 12:59:53;;;;;;;4.35;2.10;;;33.60;99.90;;;;;;5043877;28;20037;-63
2022/09/07 13:03:03;;;;;;;4.78;2.08;;;33.80;99.90;;;;;;5045642;28;20040;-61
2022/09/07 13:05:43;;;;;;;4.68;1.80;;;35.90;99.90;;;;;;5044766;28;20256;-63
2022/09/07 13:08:46;;;;;;;6.38;2.08;;;36.20;99.90;;;;;;5044270;28;20109;-63
2022/09/07 13:11:20;;;;;;;5.40;2.40;;;36.80;99.90;;;;;;5040545;28;20402;-63
2022/09/07 13:14:18;;;;;;;4.95;2.05;;;36.00;99.90;;;;;;5040734;28;20041;-63
2022/09/07 13:16:45;;;;;;;4.88;2.20;;;33.00;99.90;;;;;;5036852;28;20053;-63
2022/09/07 13:19:35;;;;;;;5.28;1.80;;;32.40;99.90;;;;;;5038113;28;20099;-63
2022/09/07 13:22:01;;;;;;;4.00;1.63;;;33.30;99.90;;;;;;5035515;28;20041;-63
2022/09/07 13:24:55;;;;;;;5.45;1.70;;;35.50;99.90;;;;;;5037995;28;20034;-63
2022/09/07 13:27:27;;;;;;;4.95;1.65;;;36.80;99.90;;;;;;5033822;28;20038;-63
2022/09/07 13:29:58;;;;;;;3.97;1.75;;;36.20;99.90;;;;;;5036955;28;20048;-63
2022/09/07 13:32:31;;;;;;;4.20;1.60;;;36.10;99.90;;;;;;5045827;28;20035;-63
2022/09/07 13:35:26;;;;;;;3.97;1.60;;;37.40;99.90;;;;;;5051028;28;20044;-63
2022/09/07 13:37:58;;;;;;;4.30;1.40;;;38.50;99.90;;;;;;5044832;28;20089;-63